createdAt,value
2022-08-14T00:04:34.794Z,406.72
2022-08-14T00:09:16.836Z,407.18
2022-08-14T00:14:23.989Z,407.66
2022-08-14T00:19:31.174Z,408.05
2022-08-14T00:24:38.390Z,408.11
2022-08-14T00:29:45.581Z,409.00
2022-08-14T00:34:52.765Z,409.48
2022-08-14T00:40:00.293Z,410.18
2022-08-14T00:45:07.206Z,410.91
2022-08-14T00:50:17.885Z,412.34
2022-08-14T00:55:21.566Z,412.03
2022-08-14T01:00:37.100Z,413.01
2022-08-14T01:05:41.776Z,412.58
2022-08-14T01:10:43.147Z,412.75
2022-08-14T01:15:58.421Z,413.22
2022-08-14T01:20:57.500Z,414.15
2022-08-14T01:26:04.753Z,414.31
2022-08-14T01:31:11.870Z,414.96
2022-08-14T01:36:21.107Z,415.18
2022-08-14T01:41:30.150Z,415.45
2022-08-14T01:46:36.737Z,416.94
2022-08-14T01:51:41.027Z,417.34
2022-08-14T01:56:48.008Z,417.28
2022-08-14T02:01:58.878Z,417.90
2022-08-14T02:07:03.604Z,418.08
2022-08-14T02:12:10.870Z,418.63
2022-08-14T02:17:18.081Z,418.02
2022-08-14T02:22:29.028Z,418.68
2022-08-14T02:28:22.108Z,419.05
2022-08-14T02:32:39.724Z,419.12
2022-08-14T02:37:47.898Z,419.22
2022-08-14T02:42:57.589Z,419.80
2022-08-14T02:48:01.436Z,421.08
2022-08-14T02:53:08.886Z,421.32
2022-08-14T02:58:21.430Z,421.36
2022-08-14T03:03:23.005Z,422.44
2022-08-14T03:08:30.208Z,422.10
2022-08-14T03:13:37.508Z,422.68
2022-08-14T03:18:44.660Z,422.87
2022-08-14T03:23:51.848Z,423.33
2022-08-14T03:29:00.989Z,423.82
2022-08-14T03:34:10.189Z,425.15
2022-08-14T03:39:21.629Z,425.38
2022-08-14T03:45:19.031Z,425.50
2022-08-14T03:49:28.277Z,426.29
2022-08-14T03:54:35.379Z,427.17
2022-08-14T03:59:42.581Z,427.32
2022-08-14T04:04:49.755Z,427.53
2022-08-14T04:09:57.035Z,426.67
2022-08-14T04:15:04.240Z,426.86
2022-08-14T04:20:11.527Z,426.15
2022-08-14T04:25:19.310Z,426.06
2022-08-14T04:30:32.851Z,426.08
2022-08-14T04:35:55.517Z,425.49
2022-08-14T04:40:40.969Z,424.99
2022-08-14T04:45:51.199Z,425.42
2022-08-14T04:50:55.320Z,426.23
2022-08-14T04:56:02.502Z,426.44
2022-08-14T05:01:12.747Z,425.70
2022-08-14T05:06:37.199Z,426.40
2022-08-14T05:11:24.040Z,426.14
2022-08-14T05:16:31.237Z,426.51
2022-08-14T05:21:55.894Z,426.99
2022-08-14T05:26:45.643Z,426.98
2022-08-14T05:31:57.204Z,426.39
2022-08-14T05:37:02.210Z,426.19
2022-08-14T05:42:09.958Z,426.17
2022-08-14T05:47:15.357Z,426.27
2022-08-14T05:52:26.364Z,426.75
2022-08-14T05:57:29.010Z,426.89
2022-08-14T06:02:36.246Z,427.66
2022-08-14T06:07:43.422Z,428.07
2022-08-14T06:12:56.446Z,428.63
2022-08-14T06:17:59.078Z,429.53
2022-08-14T06:23:05.131Z,430.24
2022-08-14T06:28:26.862Z,430.76
2022-08-14T06:33:19.629Z,430.97
2022-08-14T06:38:26.914Z,432.25
2022-08-14T06:43:34.165Z,433.18
2022-08-14T06:48:41.977Z,433.30
2022-08-14T06:53:48.683Z,434.19
2022-08-14T06:58:55.956Z,433.32
2022-08-14T07:04:03.146Z,433.36
2022-08-14T07:09:10.325Z,432.86
2022-08-14T07:14:17.593Z,433.47
2022-08-14T07:19:24.764Z,433.62
2022-08-14T07:24:31.962Z,433.94
2022-08-14T07:29:39.245Z,433.47
2022-08-14T07:34:46.438Z,432.55
2022-08-14T07:39:53.691Z,433.27
2022-08-14T07:45:00.821Z,434.34
2022-08-14T07:50:08.093Z,434.40
2022-08-14T07:55:15.356Z,435.55
2022-08-14T08:00:30.858Z,436.37
2022-08-14T08:05:29.769Z,436.39
2022-08-14T08:10:46.781Z,436.31
2022-08-14T08:15:44.215Z,436.14
2022-08-14T08:20:52.003Z,435.73
2022-08-14T08:25:58.629Z,435.83
2022-08-14T08:31:05.871Z,435.75
2022-08-14T08:36:18.731Z,436.05
2022-08-14T08:41:20.338Z,437.19
2022-08-14T08:46:27.552Z,437.67
2022-08-14T08:51:34.857Z,438.43
2022-08-14T08:56:42.258Z,437.03
2022-08-14T09:01:51.466Z,437.33
2022-08-14T09:07:09.320Z,439.11
2022-08-14T09:12:03.637Z,438.97
2022-08-14T09:17:10.861Z,438.68
2022-08-14T09:22:33.330Z,439.83
2022-08-14T09:27:25.886Z,440.32
2022-08-14T09:32:59.155Z,441.03
2022-08-14T09:37:40.386Z,441.19
2022-08-14T09:42:50.082Z,441.59
2022-08-14T09:47:54.866Z,442.49
2022-08-14T09:53:02.544Z,443.24
2022-08-14T09:58:09.347Z,443.55
2022-08-14T10:03:16.659Z,442.98
2022-08-14T10:08:26.334Z,443.88
2022-08-14T10:13:43.325Z,443.67
2022-08-14T10:18:39.388Z,444.18
2022-08-14T10:23:46.579Z,444.94
2022-08-14T10:29:19.391Z,445.26
2022-08-14T10:34:01.024Z,445.28
2022-08-14T10:39:08.199Z,445.97
2022-08-14T10:44:20.827Z,446.44
2022-08-14T10:49:23.408Z,447.21
2022-08-14T10:54:37.253Z,447.45
2022-08-14T10:59:38.126Z,447.69
2022-08-14T11:04:44.377Z,448.02
2022-08-14T11:09:51.510Z,448.33
2022-08-14T11:14:59.854Z,447.84
2022-08-14T11:20:05.964Z,448.02
2022-08-14T11:25:13.175Z,448.27
2022-08-14T11:30:51.100Z,448.29
2022-08-14T11:35:44.089Z,447.79
2022-08-14T11:40:34.950Z,448.66
2022-08-14T11:45:42.038Z,448.18
2022-08-14T11:50:49.234Z,448.11
2022-08-14T11:55:56.438Z,447.78
2022-08-14T12:01:03.601Z,448.18
2022-08-14T12:06:29.807Z,447.86
2022-08-14T12:11:18.050Z,447.76
2022-08-14T12:16:25.256Z,447.68
2022-08-14T12:21:32.537Z,448.55
2022-08-14T12:26:41.007Z,448.22
2022-08-14T12:31:47.436Z,448.03
2022-08-14T12:36:54.261Z,447.99
2022-08-14T12:42:01.587Z,447.52
2022-08-14T12:47:08.755Z,448.36
2022-08-14T12:52:17.306Z,448.23
2022-08-14T12:57:23.116Z,448.24
2022-08-14T13:02:30.354Z,448.65
2022-08-14T13:07:37.565Z,449.47
2022-08-14T13:13:10.019Z,450.02
2022-08-14T13:17:52.102Z,450.47
2022-08-14T13:22:59.179Z,450.61
2022-08-14T13:28:11.221Z,450.55
2022-08-14T13:33:14.784Z,451.03
2022-08-14T13:38:20.792Z,452.45
2022-08-14T13:43:31.653Z,452.70
2022-08-14T13:48:36.216Z,452.96
2022-08-14T13:53:43.923Z,453.52
2022-08-14T13:58:49.713Z,454.47
2022-08-14T14:03:56.946Z,454.38
2022-08-14T14:09:04.229Z,455.20
2022-08-14T14:14:29.520Z,455.62
2022-08-14T14:19:19.810Z,455.88
2022-08-14T14:24:34.556Z,455.87
2022-08-14T14:29:34.332Z,456.89
2022-08-14T14:34:41.564Z,457.25
2022-08-14T14:40:52.932Z,457.98
2022-08-14T14:44:56.571Z,458.02
2022-08-14T14:50:03.249Z,458.19
2022-08-14T14:55:10.479Z,458.29
2022-08-14T15:00:18.418Z,458.74
2022-08-14T15:05:28.186Z,459.08
2022-08-14T15:10:35.417Z,459.90
2022-08-14T15:15:39.559Z,459.85
2022-08-14T15:20:46.436Z,459.79
2022-08-14T15:25:53.635Z,458.74
2022-08-14T15:31:00.938Z,459.10
2022-08-14T15:36:25.618Z,458.72
2022-08-14T15:41:15.347Z,459.54
2022-08-14T15:46:25.316Z,459.31
2022-08-14T15:51:31.357Z,459.68
2022-08-14T15:56:42.886Z,459.28
2022-08-14T16:01:54.078Z,458.73
2022-08-14T16:06:54.789Z,459.08
2022-08-14T16:11:58.489Z,458.50
2022-08-14T16:17:06.991Z,458.45
2022-08-14T16:22:58.380Z,459.08
2022-08-14T16:27:23.416Z,458.49
2022-08-14T16:32:27.422Z,459.03
2022-08-14T16:37:35.261Z,459.37
2022-08-14T16:43:04.104Z,459.37
2022-08-14T16:47:50.798Z,459.56
2022-08-14T16:53:00.909Z,459.01
2022-08-14T16:58:03.538Z,459.02
2022-08-14T17:03:11.901Z,459.16
2022-08-14T17:08:32.970Z,458.69
2022-08-14T17:13:27.071Z,459.11
2022-08-14T17:18:33.464Z,458.52
2022-08-14T17:23:40.706Z,458.22
2022-08-14T17:28:52.246Z,458.01
2022-08-14T17:33:55.180Z,458.27
2022-08-14T17:39:06.243Z,457.87
2022-08-14T17:44:09.660Z,458.60
2022-08-14T17:49:17.985Z,458.94
2022-08-14T17:54:35.053Z,458.68
2022-08-14T17:59:31.494Z,458.59
2022-08-14T18:04:38.752Z,458.53
2022-08-14T18:09:57.345Z,458.26
2022-08-14T18:14:53.278Z,457.97
2022-08-14T18:20:00.513Z,456.68
2022-08-14T18:25:18.344Z,456.25
2022-08-14T18:30:33.147Z,455.54
2022-08-14T18:35:22.186Z,455.04
2022-08-14T18:40:34.364Z,455.37
2022-08-14T18:45:41.253Z,454.37
2022-08-14T18:50:43.754Z,453.52
2022-08-14T18:55:53.658Z,452.76
2022-08-14T19:00:59.088Z,452.32
2022-08-14T19:06:06.580Z,452.10
2022-08-14T19:11:13.811Z,451.38
2022-08-14T19:16:22.888Z,450.48
2022-08-14T19:21:28.221Z,450.27
2022-08-14T19:26:54.604Z,450.12
2022-08-14T19:31:55.044Z,450.34
2022-08-14T19:37:05.083Z,450.37
2022-08-14T19:41:57.121Z,449.54
2022-08-14T19:47:10.890Z,449.65
2022-08-14T19:52:17.415Z,450.11
2022-08-14T19:57:19.224Z,450.65
2022-08-14T20:02:29.842Z,450.51
2022-08-14T20:08:00.349Z,449.97
2022-08-14T20:12:57.897Z,450.26
2022-08-14T20:17:49.037Z,450.29
2022-08-14T20:22:56.280Z,450.82
2022-08-14T20:28:03.535Z,450.66
2022-08-14T20:33:11.756Z,450.71
2022-08-14T20:38:29.516Z,450.83
2022-08-14T20:43:25.426Z,451.40
2022-08-14T20:48:53.309Z,451.07
2022-08-14T20:53:39.611Z,450.80
2022-08-14T20:58:48.887Z,450.59
2022-08-14T21:03:57.182Z,450.01
2022-08-14T21:09:01.244Z,449.71
2022-08-14T21:14:09.419Z,450.11
2022-08-14T21:19:16.710Z,448.91
2022-08-14T21:24:39.957Z,449.37
2022-08-14T21:29:31.066Z,449.30
2022-08-14T21:34:38.332Z,449.36
2022-08-14T21:39:45.629Z,449.07
2022-08-14T21:44:53.414Z,448.72
2022-08-14T21:50:00.091Z,449.40
2022-08-14T21:55:09.485Z,449.57
2022-08-14T22:00:32.431Z,449.63
2022-08-14T22:05:21.773Z,449.05
2022-08-14T22:10:28.958Z,448.63
2022-08-14T22:15:36.156Z,448.26
2022-08-14T22:20:43.434Z,448.58
2022-08-14T22:25:50.612Z,449.07
2022-08-14T22:30:57.823Z,448.76
2022-08-14T22:36:05.205Z,448.49
2022-08-14T22:41:27.438Z,448.71
2022-08-14T22:46:20.316Z,448.32
2022-08-14T22:51:27.721Z,448.68
2022-08-14T22:56:34.043Z,449.10
2022-08-14T23:01:55.172Z,448.76
2022-08-14T23:07:02.091Z,448.93
2022-08-14T23:11:56.674Z,448.26
2022-08-14T23:17:03.078Z,447.55
2022-08-14T23:22:10.351Z,447.78
2022-08-14T23:27:26.603Z,447.91
2022-08-14T23:32:25.610Z,447.22
2022-08-14T23:37:32.890Z,447.49
2022-08-14T23:42:40.675Z,446.32
2022-08-14T23:47:52.104Z,446.44
2022-08-14T23:53:07.852Z,447.04
2022-08-14T23:58:01.852Z,446.92
